Nearby METAR Reports

 

KDFW - Dallas/Ft Worth, Texas, USA
Distance from station: ESE 9mi, 14km
Updated: 08/16/2018 2:53am
Clear
Clear
 Wind from S
Wind: S 14 mph , 22 km/h
Temperature: 82°F , 28°C
Heat Index: 86°F , 30°C
Dew Point: 70°F , 21°C
Humidity: 66%
Barometer: 29.93 inHg , 1013.5 hPa
Clouds: Clear
Visibility: 10 miles , 16 km
2018/08/16 07:53 KDFW 160753Z 18012KT 10SM CLR 28/21 A2993 RMK AO2 SLP124 T02830211
KAFW - Ft Worth/Alliance, Texas, USA
Distance from station: W 10mi, 16km
Updated: 08/16/2018 2:53am
Clear
Clear
 Wind from S
Wind: S 9 mph , 15 km/h
Temperature: 82°F , 28°C
Heat Index: 85°F , 29°C
Dew Point: 68°F , 20°C
Humidity: 62%
Barometer: 29.94 inHg , 1013.9 hPa
Clouds: Clear
Visibility: 10 miles , 16 km
2018/08/16 07:53 KAFW 160753Z 19008KT 10SM CLR 28/20 A2994 RMK AO2 SLP119 T02780200
 
KDTO - Denton, Texas, USA
Distance from station: NNW 16mi, 26km
Updated: 08/16/2018 2:53am
Clear
Clear
 Wind from SSE
Wind: SSE 7 mph , 11 km/h
Temperature: 79°F , 26°C
Dew Point: 68°F , 20°C
Humidity: 70%
Barometer: 29.94 inHg , 1013.9 hPa
Clouds: Clear
Visibility: 10 miles , 16 km
2018/08/16 07:53 KDTO 160753Z AUTO 16006KT 10SM CLR 26/20 A2994 RMK AO2 SLP127 T02560200
KFTW - Fort Worth/Meacham, Texas, USA
Distance from station: SW 16mi, 26km
Updated: 08/16/2018 2:53am
Clear
Clear
 Wind from S
Wind: S 12 mph , 19 km/h
Temperature: 82°F , 28°C
Heat Index: 86°F , 30°C
Dew Point: 70°F , 21°C
Humidity: 66%
Barometer: 29.94 inHg , 1013.9 hPa
Clouds: Clear
Visibility: 10 miles , 16 km
2018/08/16 07:53 KFTW 160753Z 18010KT 10SM CLR 28/21 A2994 RMK AO2 SLP126 T02830211
 
KADS - Dallas/Addison, Texas, USA
Distance from station: E 19mi, 31km
Updated: 08/16/2018 3:15am
Clear
Clear
 Wind from S
Wind: S 8 mph , 13 km/h
Temperature: 82°F , 28°C
Heat Index: 86°F , 30°C
Dew Point: 70°F , 21°C
Humidity: 66%
Barometer: 29.97 inHg , 1014.9 hPa
Clouds: Clear
Visibility: 10 miles , 16 km
2018/08/16 08:15 KADS 160815Z AUTO 19007KT 10SM CLR 28/21 A2997 RMK AO2 T02840210
KDAL - Dallas/Love Field, Texas, USA
Distance from station: ESE 19mi, 31km
Updated: 08/16/2018 2:53am
Few Clouds
Few Clouds
 Wind from S
Wind: S 12 mph , 19 km/h
Temperature: 84°F , 29°C
Heat Index: 89°F , 32°C
Dew Point: 72°F , 22°C
Humidity: 66%
Barometer: 29.95 inHg , 1014.2 hPa
Clouds: Few Clouds
Visibility: 10 miles , 16 km
Cloud details: Few Clouds 30000 ft
2018/08/16 07:53 KDAL 160753Z 18010KT 10SM FEW300 29/22 A2995 RMK AO2 SLP132 T02890217
 
KGPM - Grand Prairie, Texas, USA
Distance from station: SSE 19mi, 31km
Updated: 08/16/2018 3:15am
Clear
Clear
 Wind from S
Wind: S 7 mph , 11 km/h
Temperature: 82°F , 28°C
Heat Index: 86°F , 30°C
Dew Point: 70°F , 21°C
Humidity: 66%
Barometer: 29.97 inHg , 1014.9 hPa
Clouds: Clear
Visibility: 10 miles , 16 km
2018/08/16 08:15 KGPM 160815Z AUTO 17006KT 10SM CLR 28/21 A2997 RMK AO2 T02810205
KGKY - Arlington, Texas, USA
Distance from station: S 21mi, 34km
Updated: 08/16/2018 2:53am
Clear
Clear
 Wind from SSE
Wind: SSE 8 mph , 13 km/h
Temperature: 82°F , 28°C
Heat Index: 86°F , 30°C
Dew Point: 72°F , 22°C
Humidity: 70%
Barometer: 29.95 inHg , 1014.2 hPa
Clouds: Clear
Visibility: 10 miles , 16 km
2018/08/16 07:53 KGKY 160753Z AUTO 16007KT 10SM CLR 28/22 A2995 RMK AO2 SLP130 T02780222
 
KNFW - Fort Worth NAS, Texas, USA
Distance from station: SW 21mi, 34km
Updated: 08/16/2018 2:52am
Clear
Clear
 Wind from S
Wind: S 9 mph , 15 km/h
Temperature: 81°F , 27°C
Heat Index: 84°F , 29°C
Dew Point: 68°F , 20°C
Humidity: 66%
Barometer: 29.94 inHg , 1013.9 hPa
Clouds: Clear
Visibility: 10 miles , 16 km
2018/08/16 07:52 KNFW 160752Z AUTO 18008KT 10SM CLR 27/20 A2994 RMK AO2 SLP123 T02720200 $
KRBD - Dallas/Redbird, Texas, USA
Distance from station: SE 26mi, 41km
Updated: 08/16/2018 2:53am
Clear
Clear
 Wind from S
Wind: S 9 mph , 15 km/h
Temperature: 82°F , 28°C
Heat Index: 86°F , 30°C
Dew Point: 70°F , 21°C
Humidity: 66%
Barometer: 29.95 inHg , 1014.2 hPa
Clouds: Clear
Visibility: 10 miles , 16 km
2018/08/16 07:53 KRBD 160753Z AUTO 18008KT 10SM CLR 28/21 A2995 RMK AO2 SLP129 T02830211
 
KFWS - Fort Worth/Spinks, Texas, USA
Distance from station: SSW 29mi, 47km
Updated: 08/16/2018 3:15am
Clear
Clear
 Wind from S
Wind: S 10 mph , 17 km/h
Temperature: 82°F , 28°C
Heat Index: 86°F , 30°C
Dew Point: 70°F , 21°C
Humidity: 66%
Barometer: 29.97 inHg , 1014.9 hPa
Clouds: Clear
Visibility: 10 miles , 16 km
2018/08/16 08:15 KFWS 160815Z AUTO 19009KT 10SM CLR 28/21 A2997 RMK AO2 T02770205
KLUD - Decatur, Texas, USA
Distance from station: NW 32mi, 51km
Updated: 08/16/2018 3:15am
Clear
Clear
 Wind from S
Wind: S 9 mph , 15 km/h
Temperature: 81°F , 27°C
Heat Index: 83°F , 28°C
Dew Point: 66°F , 19°C
Humidity: 62%
Barometer: 29.96 inHg , 1014.6 hPa
Clouds: Clear
Visibility: 10 miles , 16 km
2018/08/16 08:15 KLUD 160815Z AUTO 18008KT 10SM CLR 27/19 A2996 RMK AO2 T02710191
 
KTKI - McKinney, Texas, USA
Distance from station: ENE 36mi, 58km
Updated: 08/16/2018 2:53am
Clear
Clear
 Wind from S
Wind: S 6 mph , 9 km/h
Temperature: 77°F , 25°C
Dew Point: 72°F , 22°C
Humidity: 83%
Barometer: 29.95 inHg , 1014.2 hPa
Clouds: Clear
Visibility: 10 miles , 16 km
2018/08/16 07:53 KTKI 160753Z AUTO 17005KT 10SM CLR 25/22 A2995 RMK AO2 SLP134 T02500222
KLNC - Lancaster, Texas, USA
Distance from station: SE 36mi, 59km
Updated: 08/16/2018 3:15am
Clear
Clear
 Wind from S
Wind: S 6 mph , 9 km/h
Temperature: 79°F , 26°C
Dew Point: 72°F , 22°C
Humidity: 79%
Barometer: 29.97 inHg , 1014.9 hPa
Clouds: Clear
Visibility: 10 miles , 16 km
2018/08/16 08:15 KLNC 160815Z AUTO 19005KT 10SM CLR 26/22 A2997 RMK AO2 T02560215
 
KJWY - Midlothian/Wax, Texas, USA
Distance from station: SSE 38mi, 62km
Updated: 08/16/2018 3:15am
Clear
Clear
 Wind from S
Wind: S 6 mph , 9 km/h
Temperature: 79°F , 26°C
Dew Point: 72°F , 22°C
Humidity: 79%
Barometer: 29.98 inHg , 1015.2 hPa
Clouds: Clear
Visibility: 10 miles , 16 km
2018/08/16 08:15 KJWY 160815Z AUTO 17005KT 10SM CLR 26/22 A2998 RMK AO2 T02560220
KHQZ - Mesquite, Texas, USA
Distance from station: ESE 39mi, 62km
Updated: 08/16/2018 3:15am
Clear
Clear
 Wind from SSE
Wind: SSE 7 mph , 11 km/h
Temperature: 77°F , 25°C
Dew Point: 72°F , 22°C
Humidity: 83%
Barometer: 29.96 inHg , 1014.6 hPa
Clouds: Clear
Visibility: 10 miles , 16 km
2018/08/16 08:15 KHQZ 160815Z AUTO 16006KT 10SM CLR 25/22 A2996 RMK AO1 T02480220
 
KF46 - Rockwall, Texas, USA
Distance from station: E 41mi, 67km
Updated: 08/16/2018 3:15am
Clear
Clear
 Wind from S
Wind: S 8 mph , 13 km/h
Temperature: 79°F , 26°C
Dew Point: 72°F , 22°C
Humidity: 79%
Barometer: 29.97 inHg , 1014.9 hPa
Clouds: Clear
Visibility: 10 miles , 16 km
2018/08/16 08:15 KF46 160815Z AUTO 17007KT 10SM CLR 26/22 A2997 RMK AO2 T02630221
KXBP - Bridgeport, Texas, USA
Distance from station: WNW 43mi, 68km
Updated: 08/16/2018 3:15am
Clear
Clear
 Wind from calm
Wind: Calm
Temperature: 73°F , 23°C
Dew Point: 70°F , 21°C
Humidity: 89%
Barometer: 29.97 inHg , 1014.9 hPa
Clouds: Clear
Visibility: 10 miles , 16 km
2018/08/16 08:15 KXBP 160815Z AUTO 00000KT 10SM CLR 23/21 A2997 RMK AO2 T02330210
 
KCPT - Cleburne, Texas, USA
Distance from station: SSW 46mi, 74km
Updated: 08/16/2018 3:15am
Clear
Clear
 Wind from S
Wind: S 8 mph , 13 km/h
Temperature: 79°F , 26°C
Dew Point: 72°F , 22°C
Humidity: 79%
Barometer: 29.99 inHg , 1015.6 hPa
Clouds: Clear
Visibility: 10 miles , 16 km
2018/08/16 08:15 KCPT 160815Z AUTO 17007KT 10SM CLR 26/22 A2999 RMK AO2
KGLE - Gainesville, Texas, USA
Distance from station: N 47mi, 76km
Updated: 08/16/2018 3:15am
Clear
Clear
 Wind from S
Wind: S 5 mph , 7 km/h
Temperature: 75°F , 24°C
Dew Point: 70°F , 21°C
Humidity: 83%
Barometer: 29.97 inHg , 1014.9 hPa
Clouds: Clear
Visibility: 10 miles , 16 km
2018/08/16 08:15 KGLE 160815Z AUTO 19004KT 10SM CLR 24/21 A2997 RMK AO2 T02370205